createdAt,value
2019-04-16T00:02:09.454Z,64.15
2019-04-16T00:04:39.722Z,63.54
2019-04-16T00:07:26.371Z,62.95
2019-04-16T00:09:56.586Z,63.16
2019-04-16T00:12:26.860Z,64.24
2019-04-16T00:14:57.186Z,65.30
2019-04-16T00:17:25.962Z,64.65
2019-04-16T00:19:54.670Z,64.97
2019-04-16T00:22:25.003Z,65.37
2019-04-16T00:24:55.081Z,64.43
2019-04-16T00:27:28.253Z,64.58
2019-04-16T00:29:54.663Z,64.56
2019-04-16T00:32:26.170Z,64.17
2019-04-16T00:34:55.356Z,64.25
2019-04-16T00:37:24.188Z,64.97
2019-04-16T00:39:55.548Z,64.42
2019-04-16T00:42:26.516Z,64.81
2019-04-16T00:44:55.553Z,65.25
2019-04-16T00:47:24.462Z,65.15
2019-04-16T00:49:57.557Z,64.29
2019-04-16T00:52:25.583Z,63.95
2019-04-16T00:54:54.619Z,64.15
2019-04-16T00:57:23.720Z,63.89
2019-04-16T00:59:56.304Z,63.39
2019-04-16T01:02:22.807Z,62.41
2019-04-16T01:04:51.501Z,62.12
2019-04-16T01:07:20.067Z,62.50
2019-04-16T01:09:48.630Z,62.97
2019-04-16T01:12:17.313Z,63.91
2019-04-16T01:14:45.954Z,63.69
2019-04-16T01:17:14.799Z,63.18
2019-04-16T01:19:43.486Z,62.95
2019-04-16T01:22:17.281Z,62.14
2019-04-16T01:24:46.103Z,63.77
2019-04-16T01:27:15.763Z,63.21
2019-04-16T01:29:44.392Z,64.76
2019-04-16T01:32:23.458Z,66.41
2019-04-16T01:35:05.581Z,65.72
2019-04-16T01:37:56.534Z,65.91
2019-04-16T01:40:29.423Z,63.86
2019-04-16T01:42:58.072Z,63.58
2019-04-16T01:45:29.605Z,63.61
2019-04-16T01:47:57.356Z,63.34
2019-04-16T01:50:32.227Z,62.55
2019-04-16T01:53:01.301Z,63.31
2019-04-16T01:55:29.955Z,64.14
2019-04-16T01:57:59.695Z,64.41
2019-04-16T02:00:28.972Z,63.81
2019-04-16T02:02:57.657Z,64.25
2019-04-16T02:05:26.305Z,64.32
2019-04-16T02:07:56.320Z,65.05
2019-04-16T02:10:25.588Z,64.94
2019-04-16T02:12:54.413Z,65.54
2019-04-16T02:15:23.029Z,65.44
2019-04-16T02:17:51.847Z,65.65
2019-04-16T02:20:20.462Z,64.64
2019-04-16T02:22:49.103Z,64.39
2019-04-16T02:25:20.190Z,64.71
2019-04-16T02:27:48.123Z,64.26
2019-04-16T02:30:16.760Z,63.58
2019-04-16T02:32:45.681Z,64.18
2019-04-16T02:35:14.467Z,62.63
2019-04-16T02:37:43.043Z,63.07
2019-04-16T02:40:18.283Z,63.63
2019-04-16T02:42:44.757Z,64.52
2019-04-16T02:45:13.656Z,64.05
2019-04-16T02:47:42.536Z,64.46
2019-04-16T02:50:12.994Z,65.65
2019-04-16T02:52:50.224Z,66.07
2019-04-16T02:55:21.416Z,64.64
2019-04-16T02:58:09.916Z,65.04
2019-04-16T03:00:58.979Z,66.13
2019-04-16T03:03:38.156Z,65.50
2019-04-16T03:06:06.891Z,64.66
2019-04-16T03:08:36.017Z,64.25
2019-04-16T03:11:05.991Z,65.64
2019-04-16T03:13:35.943Z,66.41
2019-04-16T03:16:07.530Z,66.89
2019-04-16T03:18:46.887Z,66.75
2019-04-16T03:21:15.575Z,65.14
2019-04-16T03:23:44.082Z,66.48
2019-04-16T03:26:16.369Z,66.02
2019-04-16T03:28:43.463Z,64.83
2019-04-16T03:31:20.254Z,63.77
2019-04-16T03:33:48.131Z,64.61
2019-04-16T03:36:12.896Z,63.58
2019-04-16T03:38:42.114Z,64.37
2019-04-16T03:41:11.074Z,64.97
2019-04-16T03:43:39.713Z,64.67
2019-04-16T03:46:12.324Z,65.39
2019-04-16T03:48:38.824Z,64.43
2019-04-16T03:51:12.688Z,65.35
2019-04-16T03:53:41.184Z,63.97
2019-04-16T03:56:09.805Z,64.36
2019-04-16T03:58:39.387Z,63.18
2019-04-16T04:01:08.361Z,63.02
2019-04-16T04:03:36.876Z,62.37
2019-04-16T04:06:06.902Z,63.87
2019-04-16T04:08:35.895Z,64.08
2019-04-16T04:11:09.202Z,64.15
2019-04-16T04:13:35.259Z,63.49
2019-04-16T04:16:04.500Z,63.88
2019-04-16T04:18:33.115Z,63.23
2019-04-16T04:21:01.668Z,64.93
2019-04-16T04:23:30.521Z,64.97
2019-04-16T04:25:59.235Z,65.32
2019-04-16T04:28:27.936Z,66.14
2019-04-16T04:30:57.696Z,65.96
2019-04-16T04:33:40.923Z,66.23
2019-04-16T04:36:09.159Z,65.92
2019-04-16T04:38:38.555Z,65.46
2019-04-16T04:41:08.630Z,65.12
2019-04-16T04:43:39.059Z,64.79
2019-04-16T04:46:12.782Z,64.87
2019-04-16T04:48:38.604Z,65.44
2019-04-16T04:51:08.713Z,64.79
2019-04-16T04:53:38.123Z,65.44
2019-04-16T04:56:06.920Z,64.49
2019-04-16T04:58:35.581Z,65.09
2019-04-16T05:01:04.416Z,64.54
2019-04-16T05:03:37.377Z,65.04
2019-04-16T05:06:27.788Z,63.84
2019-04-16T05:08:57.611Z,63.77
2019-04-16T05:11:26.541Z,63.61
2019-04-16T05:13:56.401Z,63.42
2019-04-16T05:16:25.918Z,63.26
2019-04-16T05:18:54.642Z,63.63
2019-04-16T05:21:28.296Z,62.51
2019-04-16T05:23:58.076Z,61.89
2019-04-16T05:26:28.474Z,61.85
2019-04-16T05:28:58.799Z,61.97
2019-04-16T05:31:27.535Z,61.28
2019-04-16T05:34:00.623Z,61.72
2019-04-16T05:36:26.743Z,60.94
2019-04-16T05:38:56.356Z,60.65
2019-04-16T05:41:31.350Z,59.40
2019-04-16T05:44:01.752Z,59.55
2019-04-16T05:46:30.708Z,57.86
2019-04-16T05:48:59.366Z,57.93
2019-04-16T05:51:31.277Z,56.12
2019-04-16T05:54:00.295Z,55.39
2019-04-16T05:56:30.619Z,54.82
2019-04-16T05:58:59.683Z,54.05
2019-04-16T06:01:49.380Z,54.18
2019-04-16T06:04:24.236Z,53.02
2019-04-16T06:06:50.299Z,53.68
2019-04-16T06:09:19.014Z,53.69
2019-04-16T06:11:47.657Z,52.90
2019-04-16T06:14:21.015Z,51.72
2019-04-16T06:16:57.656Z,51.04
2019-04-16T06:19:27.953Z,51.49
2019-04-16T06:22:14.680Z,50.26
2019-04-16T06:25:00.218Z,49.32
2019-04-16T06:27:33.243Z,49.71
2019-04-16T06:30:03.945Z,52.33
2019-04-16T06:32:49.695Z,59.10
2019-04-16T06:35:42.307Z,51.49
2019-04-16T06:38:06.657Z,50.68
2019-04-16T06:40:42.714Z,50.71
2019-04-16T06:43:18.870Z,47.99
2019-04-16T06:45:57.916Z,47.42
2019-04-16T06:48:31.153Z,46.84
2019-04-16T06:51:20.060Z,47.30
2019-04-16T06:53:59.282Z,47.62
2019-04-16T06:56:29.607Z,47.53
2019-04-16T06:59:17.199Z,47.45
2019-04-16T07:02:01.932Z,48.45
2019-04-16T07:04:47.270Z,48.03
2019-04-16T07:07:40.008Z,49.07
2019-04-16T07:10:08.983Z,49.11
2019-04-16T07:12:38.488Z,46.55
2019-04-16T07:15:09.075Z,49.08
2019-04-16T07:17:40.465Z,46.73
2019-04-16T07:20:13.022Z,47.65
2019-04-16T07:22:38.639Z,46.61
2019-04-16T07:25:07.773Z,45.28
2019-04-16T07:27:38.882Z,44.76
2019-04-16T07:30:09.645Z,45.00
2019-04-16T07:32:43.563Z,45.61
2019-04-16T07:35:30.021Z,48.70
2019-04-16T07:38:05.414Z,45.24
2019-04-16T07:40:41.067Z,44.44
2019-04-16T07:43:15.924Z,44.02
2019-04-16T07:45:46.445Z,44.03
2019-04-16T07:48:25.757Z,44.37
2019-04-16T07:51:01.723Z,44.48
2019-04-16T07:53:37.017Z,44.13
2019-04-16T07:56:07.463Z,44.36
2019-04-16T07:58:36.089Z,42.85
2019-04-16T08:01:05.332Z,45.00
2019-04-16T08:03:35.473Z,42.74
2019-04-16T08:06:04.183Z,42.54
2019-04-16T08:08:32.854Z,41.58
2019-04-16T08:11:01.546Z,41.93
2019-04-16T08:13:33.628Z,43.16
2019-04-16T08:16:02.514Z,42.49
2019-04-16T08:18:31.176Z,42.10
2019-04-16T08:21:05.946Z,42.20
2019-04-16T08:23:31.808Z,42.59
2019-04-16T08:26:04.340Z,43.22
2019-04-16T08:28:32.763Z,42.04
2019-04-16T08:31:02.979Z,41.64
2019-04-16T08:33:31.644Z,40.50
2019-04-16T08:36:00.367Z,39.83
2019-04-16T08:38:34.103Z,41.16
2019-04-16T08:40:59.476Z,41.83
2019-04-16T08:43:29.660Z,44.62
2019-04-16T08:45:58.929Z,43.85
2019-04-16T08:48:27.521Z,42.57
2019-04-16T08:50:58.482Z,41.74
2019-04-16T08:53:26.638Z,41.64
2019-04-16T08:55:55.220Z,38.72
2019-04-16T08:58:23.904Z,40.62
2019-04-16T09:00:52.867Z,43.49
2019-04-16T09:03:21.608Z,40.48
2019-04-16T09:05:50.573Z,40.85
2019-04-16T09:08:39.067Z,42.65
2019-04-16T09:11:07.733Z,41.88
2019-04-16T09:13:44.465Z,40.62
2019-04-16T09:16:14.571Z,41.94
2019-04-16T09:19:00.141Z,41.98
2019-04-16T09:21:29.021Z,42.20
2019-04-16T09:24:15.690Z,42.58
2019-04-16T09:26:48.998Z,41.50
2019-04-16T09:29:31.217Z,39.45
2019-04-16T09:32:01.632Z,37.89
2019-04-16T09:34:31.838Z,36.78
2019-04-16T09:37:10.796Z,38.38
2019-04-16T09:39:41.085Z,38.95
2019-04-16T09:42:09.801Z,39.02
2019-04-16T09:44:38.692Z,38.24
2019-04-16T09:47:07.451Z,38.43
2019-04-16T09:49:37.495Z,38.97
2019-04-16T09:52:08.049Z,38.28
2019-04-16T09:54:36.768Z,37.32
2019-04-16T09:57:05.423Z,36.65
2019-04-16T09:59:47.415Z,35.60
2019-04-16T10:02:16.887Z,35.82
2019-04-16T10:04:45.495Z,35.50
2019-04-16T10:07:14.507Z,35.88
2019-04-16T10:09:43.111Z,35.49
2019-04-16T10:12:11.767Z,35.69
2019-04-16T10:14:42.429Z,37.13
2019-04-16T10:17:11.137Z,36.03
2019-04-16T10:19:43.053Z,35.93
2019-04-16T10:22:10.823Z,35.55
2019-04-16T10:24:56.913Z,35.55
2019-04-16T10:27:31.284Z,35.41
2019-04-16T10:29:57.651Z,35.77
2019-04-16T10:32:27.935Z,35.63
2019-04-16T10:34:57.794Z,35.54
2019-04-16T10:37:26.433Z,34.31
2019-04-16T10:39:59.716Z,33.64
2019-04-16T10:42:32.782Z,33.69
2019-04-16T10:45:20.777Z,33.56
2019-04-16T10:47:51.125Z,33.34
2019-04-16T10:50:27.198Z,34.21
2019-04-16T10:53:15.835Z,33.83
2019-04-16T10:55:51.878Z,33.40
2019-04-16T10:58:22.224Z,33.39
2019-04-16T11:01:01.485Z,34.51
2019-04-16T11:03:48.309Z,33.86
2019-04-16T11:06:30.653Z,33.87
2019-04-16T11:08:59.380Z,34.47
2019-04-16T11:11:28.030Z,34.47
2019-04-16T11:14:00.548Z,32.49
2019-04-16T11:16:31.581Z,32.49
2019-04-16T11:19:00.510Z,32.60
2019-04-16T11:21:29.296Z,32.25
2019-04-16T11:23:58.045Z,32.71
2019-04-16T11:26:29.796Z,34.14
2019-04-16T11:28:58.533Z,34.85
2019-04-16T11:31:27.442Z,38.30
2019-04-16T11:33:56.150Z,39.42
2019-04-16T11:36:24.806Z,40.17
2019-04-16T11:38:53.477Z,40.58
2019-04-16T11:41:22.654Z,40.19
2019-04-16T11:43:51.294Z,40.69
2019-04-16T11:46:20.677Z,40.84
2019-04-16T11:48:50.309Z,42.11
2019-04-16T11:51:19.214Z,43.40
2019-04-16T11:53:47.925Z,42.09
2019-04-16T11:56:16.611Z,42.29
2019-04-16T11:58:46.568Z,42.49
2019-04-16T12:01:32.428Z,43.10
2019-04-16T12:04:03.423Z,44.27
2019-04-16T12:06:39.888Z,44.99
2019-04-16T12:09:27.688Z,44.08
2019-04-16T12:12:04.188Z,43.52
2019-04-16T12:14:43.797Z,42.94
2019-04-16T12:17:26.326Z,41.68
2019-04-16T12:23:18.678Z,39.03
2019-04-16T12:25:49.017Z,39.78
2019-04-16T12:28:34.460Z,39.70
2019-04-16T12:31:21.187Z,40.51
2019-04-16T12:33:54.829Z,40.83
2019-04-16T12:36:25.180Z,40.51
2019-04-16T12:39:01.459Z,40.28
2019-04-16T12:41:31.815Z,39.19
2019-04-16T12:44:10.972Z,39.02
2019-04-16T12:46:50.047Z,39.13
2019-04-16T12:49:36.924Z,38.37
2019-04-16T12:52:07.208Z,38.54
2019-04-16T12:54:59.326Z,37.53
2019-04-16T12:57:26.983Z,37.13
2019-04-16T12:59:57.288Z,37.33
2019-04-16T13:02:44.830Z,37.13
2019-04-16T13:05:21.061Z,38.38
2019-04-16T13:08:06.791Z,38.17
2019-04-16T13:10:52.352Z,36.59
2019-04-16T13:13:28.575Z,36.80
2019-04-16T13:15:58.854Z,36.41
2019-04-16T13:18:29.153Z,37.47
2019-04-16T13:21:03.898Z,36.45
2019-04-16T13:23:37.337Z,36.31
2019-04-16T13:26:25.764Z,35.80
2019-04-16T13:28:55.496Z,35.55
2019-04-16T13:31:25.035Z,33.94
2019-04-16T13:33:53.814Z,34.90
2019-04-16T13:36:26.728Z,34.28
2019-04-16T13:39:09.840Z,34.15
2019-04-16T13:41:39.758Z,33.83
2019-04-16T13:44:25.275Z,33.40
2019-04-16T13:46:54.013Z,32.90
2019-04-16T13:49:33.252Z,33.67
2019-04-16T13:52:01.996Z,33.22
2019-04-16T13:54:38.298Z,33.66
2019-04-16T13:57:14.448Z,33.66
2019-04-16T14:00:04.919Z,34.95
2019-04-16T14:02:40.861Z,36.32
2019-04-16T14:05:11.264Z,34.50
2019-04-16T14:07:40.161Z,34.04
2019-04-16T14:10:08.791Z,33.98
2019-04-16T14:12:42.258Z,36.55
2019-04-16T14:15:10.109Z,35.92
2019-04-16T14:17:51.715Z,35.58
2019-04-16T14:20:12.826Z,36.96
2019-04-16T14:22:40.507Z,37.79
2019-04-16T14:25:09.558Z,34.18
2019-04-16T14:27:38.178Z,34.20
2019-04-16T14:30:10.327Z,34.47
2019-04-16T14:32:39.921Z,35.19
2019-04-16T14:35:10.399Z,34.87
2019-04-16T14:37:39.044Z,35.00
2019-04-16T14:40:12.683Z,33.48
2019-04-16T14:42:41.429Z,33.88
2019-04-16T14:45:12.308Z,32.70
2019-04-16T14:47:40.890Z,32.98
2019-04-16T14:50:13.310Z,33.97
2019-04-16T14:52:41.578Z,33.81
2019-04-16T14:55:28.202Z,34.35
2019-04-16T14:58:03.952Z,33.30
2019-04-16T15:00:49.952Z,33.87
2019-04-16T15:03:20.319Z,34.38
2019-04-16T15:06:03.389Z,34.94
2019-04-16T15:08:48.674Z,35.29
2019-04-16T15:11:25.718Z,34.01
2019-04-16T15:13:58.235Z,33.29
2019-04-16T15:16:38.643Z,34.47
2019-04-16T15:19:15.047Z,34.41
2019-04-16T15:22:02.041Z,35.69
2019-04-16T15:24:47.417Z,35.77
2019-04-16T15:27:17.778Z,35.02
2019-04-16T15:29:48.051Z,35.90
2019-04-16T15:32:30.165Z,35.76
2019-04-16T15:34:59.270Z,35.09
2019-04-16T15:37:29.551Z,35.44
2019-04-16T15:40:01.369Z,36.08
2019-04-16T15:42:48.319Z,36.46
2019-04-16T15:45:25.519Z,36.87
2019-04-16T15:48:00.817Z,36.75
2019-04-16T15:50:35.353Z,36.56
2019-04-16T15:53:04.527Z,36.65
2019-04-16T15:55:46.776Z,36.98
2019-04-16T15:58:17.099Z,36.89
2019-04-16T16:00:47.385Z,36.17
2019-04-16T16:03:23.730Z,35.96
2019-04-16T16:06:10.156Z,36.81
2019-04-16T16:08:49.711Z,35.82
2019-04-16T16:11:22.724Z,35.27
2019-04-16T16:13:51.308Z,34.67
2019-04-16T16:16:20.035Z,34.79
2019-04-16T16:18:48.740Z,34.96
2019-04-16T16:21:17.378Z,35.37
2019-04-16T16:23:46.054Z,36.06
2019-04-16T16:26:14.701Z,36.61
2019-04-16T16:28:43.337Z,37.82
2019-04-16T16:31:12.905Z,38.31
2019-04-16T16:33:41.547Z,38.84
2019-04-16T16:36:10.204Z,38.80
2019-04-16T16:38:40.541Z,39.18
2019-04-16T16:41:09.355Z,38.79
2019-04-16T16:43:38.071Z,38.23
2019-04-16T16:46:20.292Z,38.83
2019-04-16T16:48:50.237Z,38.49
2019-04-16T16:51:22.907Z,39.56
2019-04-16T16:53:51.933Z,39.55
2019-04-16T16:56:24.247Z,39.59
2019-04-16T16:58:54.512Z,39.52
2019-04-16T17:01:33.426Z,39.32
2019-04-16T17:04:05.489Z,39.61
2019-04-16T17:06:34.224Z,39.21
2019-04-16T17:09:02.981Z,39.34
2019-04-16T17:11:31.770Z,39.48
2019-04-16T17:14:02.255Z,39.48
2019-04-16T17:16:30.848Z,40.42
2019-04-16T17:18:59.534Z,39.12
2019-04-16T17:21:28.236Z,39.01
2019-04-16T17:23:56.909Z,39.09
2019-04-16T17:26:25.645Z,39.39
2019-04-16T17:28:54.352Z,40.60
2019-04-16T17:31:23.265Z,39.86
2019-04-16T17:33:51.932Z,40.16
2019-04-16T17:36:20.490Z,40.56
2019-04-16T17:38:49.149Z,41.44
2019-04-16T17:41:19.446Z,40.83
2019-04-16T17:44:08.050Z,40.99
2019-04-16T17:46:41.394Z,41.13
2019-04-16T17:49:20.679Z,42.70
2019-04-16T17:52:05.298Z,43.21
2019-04-16T17:54:35.522Z,43.47
2019-04-16T17:57:11.861Z,44.10
2019-04-16T17:59:57.129Z,44.58
2019-04-16T18:02:33.422Z,44.84
2019-04-16T18:05:23.699Z,45.45
2019-04-16T18:08:05.817Z,45.73
2019-04-16T18:10:49.042Z,46.45
2019-04-16T18:13:19.324Z,47.05
2019-04-16T18:15:52.350Z,47.30
2019-04-16T18:18:25.676Z,47.21
2019-04-16T18:21:05.327Z,47.20
2019-04-16T18:23:44.798Z,47.28
2019-04-16T18:26:30.090Z,47.04
2019-04-16T18:29:01.588Z,47.43
2019-04-16T18:31:35.288Z,47.43
2019-04-16T18:34:09.004Z,47.70
2019-04-16T18:36:39.987Z,48.33
2019-04-16T18:39:19.469Z,48.73
2019-04-16T18:41:49.912Z,48.79
2019-04-16T18:44:36.511Z,49.07
2019-04-16T18:47:18.854Z,48.99
2019-04-16T18:49:49.088Z,48.92
2019-04-16T18:52:17.734Z,48.56
2019-04-16T18:54:49.403Z,48.14
2019-04-16T18:57:17.063Z,48.53
2019-04-16T18:59:46.013Z,48.42
2019-04-16T19:02:15.654Z,49.06
2019-04-16T19:04:44.310Z,49.22
2019-04-16T19:07:12.958Z,49.69
2019-04-16T19:09:41.718Z,49.36
2019-04-16T19:12:10.855Z,49.03
2019-04-16T19:14:39.552Z,48.64
2019-04-16T19:17:08.318Z,48.51
2019-04-16T19:19:37.033Z,48.40
2019-04-16T19:22:05.979Z,48.52
2019-04-16T19:24:35.165Z,48.35
2019-04-16T19:27:03.808Z,48.29
2019-04-16T19:29:32.568Z,47.98
2019-04-16T19:32:01.284Z,47.95
2019-04-16T19:34:29.899Z,48.04
2019-04-16T19:36:59.531Z,48.06
2019-04-16T19:39:28.956Z,48.36
2019-04-16T19:41:58.248Z,48.66
2019-04-16T19:44:26.926Z,48.74
2019-04-16T19:46:55.513Z,48.92
2019-04-16T19:49:24.230Z,48.40
2019-04-16T19:51:55.394Z,49.08
2019-04-16T19:54:23.950Z,49.42
2019-04-16T19:56:53.091Z,50.41
2019-04-16T19:59:22.034Z,50.08
2019-04-16T20:01:55.784Z,50.50
2019-04-16T20:04:24.259Z,50.68
2019-04-16T20:06:59.984Z,50.47
2019-04-16T20:09:24.880Z,50.25
2019-04-16T20:12:03.346Z,50.46
2019-04-16T20:14:35.328Z,50.66
2019-04-16T20:17:02.268Z,51.19
2019-04-16T20:19:30.907Z,50.96
2019-04-16T20:21:59.599Z,51.10
2019-04-16T20:24:28.285Z,51.49
2019-04-16T20:26:57.032Z,51.69
2019-04-16T20:29:25.950Z,51.99
2019-04-16T20:31:54.611Z,51.98
2019-04-16T20:34:23.306Z,51.81
2019-04-16T20:36:52.144Z,51.51
2019-04-16T20:39:22.354Z,51.97
2019-04-16T20:41:54.024Z,51.90
2019-04-16T20:44:22.993Z,52.48
2019-04-16T20:46:51.626Z,52.54
2019-04-16T20:49:20.236Z,52.73
2019-04-16T20:51:49.034Z,53.02
2019-04-16T20:54:17.679Z,53.09
2019-04-16T20:56:46.401Z,53.10
2019-04-16T20:59:14.872Z,53.53
2019-04-16T21:01:43.588Z,53.63
2019-04-16T21:04:12.265Z,53.71
2019-04-16T21:06:41.991Z,53.93
2019-04-16T21:09:10.866Z,53.66
2019-04-16T21:11:41.002Z,53.79
2019-04-16T21:14:09.912Z,53.65
2019-04-16T21:16:38.476Z,53.51
2019-04-16T21:19:21.680Z,52.93
2019-04-16T21:21:38.235Z,52.92
2019-04-16T21:24:08.500Z,53.35
2019-04-16T21:26:37.562Z,53.64
2019-04-16T21:29:07.845Z,53.98
2019-04-16T21:31:44.132Z,54.34
2019-04-16T21:34:17.112Z,54.60
2019-04-16T21:36:47.322Z,54.87
2019-04-16T21:39:18.347Z,54.52
2019-04-16T21:41:47.004Z,54.29
2019-04-16T21:44:15.653Z,53.80
2019-04-16T21:46:44.355Z,53.73
2019-04-16T21:49:13.081Z,54.29
2019-04-16T21:51:58.694Z,53.42
2019-04-16T21:54:30.575Z,53.06
2019-04-16T21:56:58.009Z,53.17
2019-04-16T21:59:26.691Z,53.55
2019-04-16T22:01:55.500Z,53.65
2019-04-16T22:04:24.163Z,53.89
2019-04-16T22:06:53.422Z,54.29
2019-04-16T22:09:22.109Z,54.77
2019-04-16T22:11:50.956Z,54.64
2019-04-16T22:14:22.368Z,55.16
2019-04-16T22:16:50.000Z,55.34
2019-04-16T22:19:18.661Z,55.58
2019-04-16T22:21:47.155Z,55.33
2019-04-16T22:24:15.851Z,55.02
2019-04-16T22:26:44.513Z,54.95
2019-04-16T22:29:15.801Z,55.12
2019-04-16T22:31:43.533Z,55.63
2019-04-16T22:34:12.181Z,55.29
2019-04-16T22:36:40.677Z,55.18
2019-04-16T22:39:11.042Z,55.38
2019-04-16T22:41:41.432Z,54.92
2019-04-16T22:44:27.770Z,54.51
2019-04-16T22:47:01.021Z,55.04
2019-04-16T22:49:30.246Z,55.04
2019-04-16T22:51:59.208Z,55.17
2019-04-16T22:54:27.735Z,55.42
2019-04-16T22:57:10.299Z,55.24
2019-04-16T22:59:40.030Z,55.93
2019-04-16T23:02:10.392Z,56.07
2019-04-16T23:04:39.014Z,55.70
2019-04-16T23:07:08.773Z,56.21
2019-04-16T23:09:37.923Z,55.75
2019-04-16T23:12:06.919Z,55.25
2019-04-16T23:14:35.826Z,54.91
2019-04-16T23:17:04.423Z,55.14
2019-04-16T23:19:33.032Z,56.27
2019-04-16T23:22:01.674Z,56.53
2019-04-16T23:24:30.319Z,57.16
2019-04-16T23:27:04.524Z,56.76
2019-04-16T23:29:29.350Z,56.53
2019-04-16T23:31:58.106Z,56.19
2019-04-16T23:34:26.753Z,56.40
2019-04-16T23:36:55.393Z,56.86
2019-04-16T23:39:24.075Z,56.75
2019-04-16T23:41:52.794Z,56.95
2019-04-16T23:44:38.205Z,56.66
2019-04-16T23:47:10.213Z,56.19
2019-04-16T23:49:40.337Z,56.41
2019-04-16T23:52:13.376Z,56.94
2019-04-16T23:54:44.116Z,57.05
2019-04-16T23:57:15.261Z,56.97
